sensor_id;sensor_type;location;lat;lon;timestamp;temperature;humidity
18143;DHT22;9197;50.930;3.140;2022-09-04T00:01:15;18.60;99.90
18143;DHT22;9197;50.930;3.140;2022-09-04T00:03:51;18.60;99.90
18143;DHT22;9197;50.930;3.140;2022-09-04T00:06:25;18.60;99.90
18143;DHT22;9197;50.930;3.140;2022-09-04T00:09:06;18.50;99.90
18143;DHT22;9197;50.930;3.140;2022-09-04T00:11:41;18.50;99.90
18143;DHT22;9197;50.930;3.140;2022-09-04T00:14:15;18.50;99.90
18143;DHT22;9197;50.930;3.140;2022-09-04T00:16:47;18.40;99.90
18143;DHT22;9197;50.930;3.140;2022-09-04T00:19:24;18.40;99.90
18143;DHT22;9197;50.930;3.140;2022-09-04T00:21:56;18.40;99.90
18143;DHT22;9197;50.930;3.140;2022-09-04T00:24:27;18.40;99.90
18143;DHT22;9197;50.930;3.140;2022-09-04T00:26:59;18.40;99.90
18143;DHT22;9197;50.930;3.140;2022-09-04T00:29:36;18.30;99.90
18143;DHT22;9197;50.930;3.140;2022-09-04T00:32:10;18.30;99.90
18143;DHT22;9197;50.930;3.140;2022-09-04T00:34:55;18.20;99.90
18143;DHT22;9197;50.930;3.140;2022-09-04T00:37:28;18.30;99.90
18143;DHT22;9197;50.930;3.140;2022-09-04T00:40:00;18.20;99.90
18143;DHT22;9197;50.930;3.140;2022-09-04T00:42:41;18.20;99.90
18143;DHT22;9197;50.930;3.140;2022-09-04T00:45:20;18.30;99.90
18143;DHT22;9197;50.930;3.140;2022-09-04T00:48:10;18.30;99.90
18143;DHT22;9197;50.930;3.140;2022-09-04T00:51:04;18.30;99.90
18143;DHT22;9197;50.930;3.140;2022-09-04T00:57:06;18.20;99.90
18143;DHT22;9197;50.930;3.140;2022-09-04T01:00:02;18.10;99.90
18143;DHT22;9197;50.930;3.140;2022-09-04T01:02:46;18.10;99.90
18143;DHT22;9197;50.930;3.140;2022-09-04T01:05:32;18.10;99.90
18143;DHT22;9197;50.930;3.140;2022-09-04T01:08:09;18.10;99.90
18143;DHT22;9197;50.930;3.140;2022-09-04T01:10:48;18.10;99.90
18143;DHT22;9197;50.930;3.140;2022-09-04T01:13:23;18.00;99.90
18143;DHT22;9197;50.930;3.140;2022-09-04T01:15:57;18.00;99.90
18143;DHT22;9197;50.930;3.140;2022-09-04T01:18:31;18.00;99.90
18143;DHT22;9197;50.930;3.140;2022-09-04T01:21:22;17.90;99.90
18143;DHT22;9197;50.930;3.140;2022-09-04T01:26:59;17.80;99.90
18143;DHT22;9197;50.930;3.140;2022-09-04T01:29:34;17.80;99.90
18143;DHT22;9197;50.930;3.140;2022-09-04T01:32:08;17.90;99.90
18143;DHT22;9197;50.930;3.140;2022-09-04T01:34:42;17.80;99.90
18143;DHT22;9197;50.930;3.140;2022-09-04T01:37:32;17.80;99.90
18143;DHT22;9197;50.930;3.140;2022-09-04T01:40:14;17.80;99.90
18143;DHT22;9197;50.930;3.140;2022-09-04T01:42:47;17.70;99.90
18143;DHT22;9197;50.930;3.140;2022-09-04T01:45:26;17.70;99.90
18143;DHT22;9197;50.930;3.140;2022-09-04T01:47:59;17.60;99.90
18143;DHT22;9197;50.930;3.140;2022-09-04T01:50:29;17.70;99.90
18143;DHT22;9197;50.930;3.140;2022-09-04T01:53:03;17.70;99.90
18143;DHT22;9197;50.930;3.140;2022-09-04T01:55:35;17.60;99.90
18143;DHT22;9197;50.930;3.140;2022-09-04T01:58:14;17.60;99.90
18143;DHT22;9197;50.930;3.140;2022-09-04T02:00:51;17.50;99.90
18143;DHT22;9197;50.930;3.140;2022-09-04T02:03:24;17.50;99.90
18143;DHT22;9197;50.930;3.140;2022-09-04T02:06:01;17.50;99.90
18143;DHT22;9197;50.930;3.140;2022-09-04T02:08:44;17.40;99.90
18143;DHT22;9197;50.930;3.140;2022-09-04T02:11:16;17.40;99.90
18143;DHT22;9197;50.930;3.140;2022-09-04T02:14:02;17.40;99.90
18143;DHT22;9197;50.930;3.140;2022-09-04T02:16:44;17.40;99.90
18143;DHT22;9197;50.930;3.140;2022-09-04T02:19:26;17.40;99.90
18143;DHT22;9197;50.930;3.140;2022-09-04T02:22:02;17.40;99.90
18143;DHT22;9197;50.930;3.140;2022-09-04T02:24:36;17.30;99.90
18143;DHT22;9197;50.930;3.140;2022-09-04T02:27:09;17.40;99.90
18143;DHT22;9197;50.930;3.140;2022-09-04T02:29:45;17.50;99.90
18143;DHT22;9197;50.930;3.140;2022-09-04T02:32:19;17.50;99.90
18143;DHT22;9197;50.930;3.140;2022-09-04T02:34:54;17.50;99.90
18143;DHT22;9197;50.930;3.140;2022-09-04T02:37:28;17.50;99.90
18143;DHT22;9197;50.930;3.140;2022-09-04T02:40:05;17.50;99.90
18143;DHT22;9197;50.930;3.140;2022-09-04T02:42:42;17.50;99.90
18143;DHT22;9197;50.930;3.140;2022-09-04T02:45:18;17.50;99.90
18143;DHT22;9197;50.930;3.140;2022-09-04T02:47:49;17.50;99.90
18143;DHT22;9197;50.930;3.140;2022-09-04T02:50:28;17.50;99.90
18143;DHT22;9197;50.930;3.140;2022-09-04T02:53:09;17.50;99.90
18143;DHT22;9197;50.930;3.140;2022-09-04T02:55:54;17.40;99.90
18143;DHT22;9197;50.930;3.140;2022-09-04T02:58:33;17.40;99.90
18143;DHT22;9197;50.930;3.140;2022-09-04T03:01:10;17.30;99.90
18143;DHT22;9197;50.930;3.140;2022-09-04T03:03:43;17.40;99.90
18143;DHT22;9197;50.930;3.140;2022-09-04T03:06:16;17.30;99.90
18143;DHT22;9197;50.930;3.140;2022-09-04T03:08:52;17.30;99.90
18143;DHT22;9197;50.930;3.140;2022-09-04T03:11:25;17.20;99.90
18143;DHT22;9197;50.930;3.140;2022-09-04T03:14:00;17.10;99.90
18143;DHT22;9197;50.930;3.140;2022-09-04T03:16:35;17.10;99.90
18143;DHT22;9197;50.930;3.140;2022-09-04T03:19:09;17.00;99.90
18143;DHT22;9197;50.930;3.140;2022-09-04T03:21:44;16.90;99.90
18143;DHT22;9197;50.930;3.140;2022-09-04T03:24:19;16.90;99.90
18143;DHT22;9197;50.930;3.140;2022-09-04T03:26:50;17.00;99.90
18143;DHT22;9197;50.930;3.140;2022-09-04T03:29:28;16.90;99.90
18143;DHT22;9197;50.930;3.140;2022-09-04T03:32:04;16.90;99.90
18143;DHT22;9197;50.930;3.140;2022-09-04T03:34:42;16.80;99.90
18143;DHT22;9197;50.930;3.140;2022-09-04T03:37:25;16.70;99.90
18143;DHT22;9197;50.930;3.140;2022-09-04T03:40:08;16.50;99.90
18143;DHT22;9197;50.930;3.140;2022-09-04T03:42:51;16.50;99.90
18143;DHT22;9197;50.930;3.140;2022-09-04T03:45:28;16.40;99.90
18143;DHT22;9197;50.930;3.140;2022-09-04T03:48:14;16.40;99.90
18143;DHT22;9197;50.930;3.140;2022-09-04T03:50:49;16.40;99.90
18143;DHT22;9197;50.930;3.140;2022-09-04T03:53:27;16.40;99.90
18143;DHT22;9197;50.930;3.140;2022-09-04T03:56:24;16.40;99.90
18143;DHT22;9197;50.930;3.140;2022-09-04T03:59:00;16.40;99.90
18143;DHT22;9197;50.930;3.140;2022-09-04T04:01:39;16.40;99.90
18143;DHT22;9197;50.930;3.140;2022-09-04T04:04:31;16.30;99.90
18143;DHT22;9197;50.930;3.140;2022-09-04T04:07:04;16.30;99.90
18143;DHT22;9197;50.930;3.140;2022-09-04T04:09:43;16.40;99.90
18143;DHT22;9197;50.930;3.140;2022-09-04T04:12:29;16.40;99.90
18143;DHT22;9197;50.930;3.140;2022-09-04T04:15:16;16.40;99.90
18143;DHT22;9197;50.930;3.140;2022-09-04T04:20:58;16.30;99.90
18143;DHT22;9197;50.930;3.140;2022-09-04T04:26:44;16.30;99.90
18143;DHT22;9197;50.930;3.140;2022-09-04T04:29:42;16.30;99.90
18143;DHT22;9197;50.930;3.140;2022-09-04T04:32:32;16.30;99.90
18143;DHT22;9197;50.930;3.140;2022-09-04T04:35:19;16.30;99.90
18143;DHT22;9197;50.930;3.140;2022-09-04T04:38:01;16.30;99.90
18143;DHT22;9197;50.930;3.140;2022-09-04T04:40:45;16.20;99.90
18143;DHT22;9197;50.930;3.140;2022-09-04T04:43:20;16.20;99.90
18143;DHT22;9197;50.930;3.140;2022-09-04T04:45:54;16.20;99.90
18143;DHT22;9197;50.930;3.140;2022-09-04T04:51:48;16.10;99.90
18143;DHT22;9197;50.930;3.140;2022-09-04T04:54:51;16.10;99.90
